Archival Weather

Al Kharj

Al Kharj, Saudi Arabia (OEKJ)

Report from: Thursday, September 21, 2023 2:00 PM UTC
Current time: Friday, February 23, 2024 8:37 PM UTC

Current weather – Weather history – Daily summaries
Weather forecast

Temperature41.0°C (105.8°F)
Heat index37.3°C (99.1°F)
Dew point-6.0°C (21.2°F)
Winds 14 kts (7.2 m/s, 16.1 mph) Northeast (50°)
Clouds Sky clear
Altimeter29.83 in.Hg (1010 mB)
Relative humidity5 %
Density altitude3,095 ft. (943 m)
Remarks Ceiling and visibility OK
Flight conditions Visual Meteorological Conditions
Raw dataOEKJ 211400Z 05014KT CAVOK 41/M06 Q1010
An error has occurred. This application may no longer respond until reloaded. Reload 🗙